createdAt,value
2023-03-16T00:00:25.118Z,4.8
2023-03-16T00:05:25.120Z,4.8
2023-03-16T00:10:25.435Z,5.1
2023-03-16T00:15:25.113Z,6.3
2023-03-16T00:20:25.549Z,6
2023-03-16T00:25:25.114Z,4
2023-03-16T00:30:25.117Z,6
2023-03-16T00:35:25.110Z,5.6
2023-03-16T00:40:25.181Z,5.7
2023-03-16T00:45:25.110Z,5.5
2023-03-16T00:50:25.421Z,4.7
2023-03-16T00:55:25.108Z,4.9
2023-03-16T01:00:25.331Z,4.6
2023-03-16T01:05:25.094Z,5.1
2023-03-16T01:10:25.120Z,4.8
2023-03-16T01:15:25.108Z,4
2023-03-16T01:20:25.099Z,4.1
2023-03-16T01:25:25.100Z,4.4
2023-03-16T01:30:25.201Z,5.3
2023-03-16T01:35:25.135Z,4.4
2023-03-16T01:40:25.097Z,6
2023-03-16T01:45:25.104Z,6.5
2023-03-16T01:50:25.272Z,7.1
2023-03-16T01:55:25.119Z,7.1
2023-03-16T02:00:25.107Z,6.8
2023-03-16T02:05:25.104Z,6.3
2023-03-16T02:10:25.191Z,6.1
2023-03-16T02:15:25.220Z,5.7
2023-03-16T02:20:25.181Z,4.4
2023-03-16T02:25:25.099Z,4.9
2023-03-16T02:30:25.182Z,4.5
2023-03-16T02:35:25.195Z,5.3
2023-03-16T02:40:25.470Z,5.5
2023-03-16T02:45:25.105Z,0
2023-03-16T02:50:25.130Z,5.1
2023-03-16T02:55:25.112Z,4.3
2023-03-16T03:00:25.130Z,5.8
2023-03-16T03:05:25.104Z,7
2023-03-16T03:10:25.197Z,6.3
2023-03-16T03:15:25.101Z,5.4
2023-03-16T03:20:25.094Z,5.4
2023-03-16T03:25:25.100Z,0
2023-03-16T03:30:25.151Z,0
2023-03-16T03:35:25.116Z,0
2023-03-16T03:40:25.192Z,4.8
2023-03-16T03:45:25.117Z,4.8
2023-03-16T03:50:25.099Z,4.6
2023-03-16T03:55:25.115Z,4.5
2023-03-16T04:00:25.192Z,4.8
2023-03-16T04:05:25.097Z,5.7
2023-03-16T04:10:25.228Z,4
2023-03-16T04:15:25.119Z,0
2023-03-16T04:20:25.328Z,0
2023-03-16T04:25:25.106Z,6.9
2023-03-16T04:30:25.099Z,4.3
2023-03-16T04:35:25.106Z,4
2023-03-16T04:40:25.133Z,5.1
2023-03-16T04:45:25.105Z,4.7
2023-03-16T04:50:25.103Z,0
2023-03-16T04:55:25.213Z,0
2023-03-16T05:00:25.096Z,0
2023-03-16T05:05:25.184Z,0
2023-03-16T05:10:25.183Z,0
2023-03-16T05:15:25.103Z,0
2023-03-16T05:20:25.105Z,4.9
2023-03-16T05:25:25.107Z,5.1
2023-03-16T05:30:25.245Z,6.1
2023-03-16T05:35:25.100Z,6.5
2023-03-16T05:40:25.109Z,6.5
2023-03-16T05:45:25.113Z,6.1
2023-03-16T05:50:25.138Z,7.4
2023-03-16T05:55:25.106Z,7.2
2023-03-16T06:00:25.101Z,8.2
2023-03-16T06:05:25.134Z,8.1
2023-03-16T06:10:25.107Z,10.9
2023-03-16T06:15:25.185Z,9.3
2023-03-16T06:20:25.114Z,8.6
2023-03-16T06:25:25.116Z,9.5
2023-03-16T06:30:25.121Z,9.6
2023-03-16T06:35:25.120Z,8.4
2023-03-16T06:40:25.133Z,7.8
2023-03-16T06:45:25.101Z,9.4
2023-03-16T06:50:25.109Z,10.1
2023-03-16T06:55:25.113Z,9.7
2023-03-16T07:00:25.104Z,10.2
2023-03-16T07:05:25.108Z,10.1
2023-03-16T07:10:25.110Z,9.3
2023-03-16T07:15:25.110Z,9.4
2023-03-16T07:20:25.112Z,9
2023-03-16T07:25:25.103Z,9.5
2023-03-16T07:30:25.110Z,7.2
2023-03-16T07:35:25.137Z,9.8
2023-03-16T07:40:25.099Z,8.7
2023-03-16T07:45:25.208Z,10.2
2023-03-16T07:50:25.222Z,9.6
2023-03-16T07:55:25.106Z,8
2023-03-16T08:00:25.098Z,10.5
2023-03-16T08:05:27.592Z,9.5
2023-03-16T08:10:25.102Z,9.4
2023-03-16T08:15:25.149Z,11.3
2023-03-16T08:20:25.102Z,9.4
2023-03-16T08:25:25.114Z,9.4
2023-03-16T08:30:25.100Z,8.4
2023-03-16T08:35:25.111Z,9.9
2023-03-16T08:40:25.136Z,9.9
2023-03-16T08:45:25.107Z,11
2023-03-16T08:50:25.123Z,11.2
2023-03-16T08:55:25.112Z,12.8
2023-03-16T09:00:25.261Z,8.9
2023-03-16T09:05:25.117Z,9.9
2023-03-16T09:10:25.154Z,11.2
2023-03-16T09:15:25.114Z,13.2
2023-03-16T09:20:29.426Z,13.2
2023-03-16T09:25:25.112Z,11.3
2023-03-16T09:30:25.193Z,9.3
2023-03-16T09:35:25.158Z,9.8
2023-03-16T09:40:25.111Z,9.2
2023-03-16T09:45:25.110Z,12.5
2023-03-16T09:50:26.572Z,14.4
2023-03-16T09:55:25.119Z,13.2
2023-03-16T10:00:25.105Z,8.2
2023-03-16T10:05:25.116Z,10.5
2023-03-16T10:10:25.106Z,12.7
2023-03-16T10:15:25.115Z,11.2
2023-03-16T10:20:25.108Z,14.9
2023-03-16T10:25:25.107Z,10
2023-03-16T10:30:25.099Z,15.6
2023-03-16T10:35:25.103Z,16.3
2023-03-16T10:40:25.108Z,16.8
2023-03-16T10:45:25.099Z,14.2
2023-03-16T10:50:25.101Z,14.9
2023-03-16T10:55:25.111Z,17.3
2023-03-16T11:00:25.116Z,17.2
2023-03-16T11:05:25.112Z,15
2023-03-16T11:10:25.111Z,20.8
2023-03-16T11:15:25.973Z,15.4
2023-03-16T11:20:25.104Z,13.8
2023-03-16T11:25:25.119Z,12.4
2023-03-16T11:30:25.111Z,15.2
2023-03-16T11:35:25.136Z,15.1
2023-03-16T11:40:25.115Z,16.8
2023-03-16T11:45:25.119Z,20.1
2023-03-16T11:50:25.111Z,16.2
2023-03-16T11:55:25.121Z,15.7
2023-03-16T12:00:25.106Z,15.7
2023-03-16T12:05:25.117Z,18
2023-03-16T12:10:25.105Z,18
2023-03-16T12:15:25.123Z,14.2
2023-03-16T12:20:25.108Z,15.6
2023-03-16T12:25:25.117Z,17.8
2023-03-16T12:30:25.105Z,15.9
2023-03-16T12:35:25.117Z,16
2023-03-16T12:40:25.094Z,14.6
2023-03-16T12:45:25.101Z,15.8
2023-03-16T12:50:25.109Z,15.2
2023-03-16T12:55:25.114Z,18.5
2023-03-16T13:00:25.092Z,20.2
2023-03-16T13:05:25.102Z,17
2023-03-16T13:10:25.096Z,20.2
2023-03-16T13:15:25.105Z,12.4
2023-03-16T13:20:30.603Z,14.5
2023-03-16T13:25:25.109Z,18.3
2023-03-16T13:30:25.144Z,21
2023-03-16T13:35:25.115Z,14.8
2023-03-16T13:40:25.104Z,16
2023-03-16T13:45:25.112Z,17.5
2023-03-16T13:50:25.119Z,9.6
2023-03-16T13:55:25.111Z,16.5
2023-03-16T14:00:25.101Z,19.7
2023-03-16T14:05:25.108Z,17.1
2023-03-16T14:10:25.107Z,19.9
2023-03-16T14:15:25.124Z,15.4
2023-03-16T14:20:25.112Z,20.7
2023-03-16T14:25:25.115Z,20.7
2023-03-16T14:30:25.107Z,15.9
2023-03-16T14:35:25.124Z,18.8
2023-03-16T14:40:25.107Z,18.6
2023-03-16T14:45:25.133Z,11.7
2023-03-16T14:50:25.114Z,18.6
2023-03-16T14:55:25.117Z,16.9
2023-03-16T15:00:25.113Z,14.6
2023-03-16T15:05:25.111Z,17.3
2023-03-16T15:10:25.104Z,17.3
2023-03-16T15:15:25.114Z,18.5
2023-03-16T15:20:25.108Z,18.5
2023-03-16T15:25:25.111Z,17.1
2023-03-16T15:30:25.106Z,13.3
2023-03-16T15:35:25.108Z,15.3
2023-03-16T15:40:25.118Z,14.1
2023-03-16T15:45:25.113Z,16.1
2023-03-16T15:50:25.105Z,14.9
2023-03-16T15:55:25.104Z,14.3
2023-03-16T16:00:25.102Z,14.7
2023-03-16T16:05:25.362Z,11.3
2023-03-16T16:10:25.095Z,10.9
2023-03-16T16:15:25.102Z,13.2
2023-03-16T16:20:25.132Z,11.9
2023-03-16T16:25:25.118Z,11.6
2023-03-16T16:30:25.099Z,9.3
2023-03-16T16:35:25.170Z,9.9
2023-03-16T16:40:25.100Z,10.2
2023-03-16T16:45:25.119Z,8.7
2023-03-16T16:50:25.129Z,9.1
2023-03-16T16:55:25.105Z,10.2
2023-03-16T17:00:25.103Z,9.1
2023-03-16T17:05:25.107Z,9.1
2023-03-16T17:10:25.107Z,7.7
2023-03-16T17:15:25.101Z,8.4
2023-03-16T17:20:25.100Z,9.1
2023-03-16T17:25:25.110Z,7.5
2023-03-16T17:30:25.113Z,7.7
2023-03-16T17:35:25.112Z,8
2023-03-16T17:40:25.112Z,9.2
2023-03-16T17:45:25.110Z,8.8
2023-03-16T17:50:25.124Z,9
2023-03-16T17:55:25.111Z,10
2023-03-16T18:00:25.099Z,6.9
2023-03-16T18:05:25.117Z,8.5
2023-03-16T18:10:25.108Z,10.1
2023-03-16T18:15:25.109Z,10.1
2023-03-16T18:20:25.113Z,8.9
2023-03-16T18:25:25.110Z,7
2023-03-16T18:30:25.112Z,7
2023-03-16T18:35:25.119Z,4.7
2023-03-16T18:40:25.112Z,6.9
2023-03-16T18:45:25.111Z,6.8
2023-03-16T18:50:25.114Z,7.8
2023-03-16T18:55:25.145Z,4
2023-03-16T19:00:25.128Z,0
2023-03-16T19:05:25.118Z,0
2023-03-16T19:10:25.115Z,5
2023-03-16T19:15:25.097Z,6.5
2023-03-16T19:20:25.101Z,6.4
2023-03-16T19:25:25.102Z,0
2023-03-16T19:30:25.098Z,6.2
2023-03-16T19:35:33.812Z,5.2
2023-03-16T19:40:25.112Z,0
2023-03-16T19:45:25.112Z,0
2023-03-16T19:50:25.113Z,0
2023-03-16T19:55:25.113Z,0
2023-03-16T20:00:25.106Z,0
2023-03-16T20:05:25.108Z,5.3
2023-03-16T20:10:25.173Z,4.1
2023-03-16T20:15:25.115Z,6
2023-03-16T20:20:25.112Z,6.2
2023-03-16T20:25:25.110Z,5.9
2023-03-16T20:30:25.110Z,5.3
2023-03-16T20:35:25.112Z,6.5
2023-03-16T20:40:25.117Z,6.9
2023-03-16T20:45:25.135Z,5.6
2023-03-16T20:50:25.114Z,7.2
2023-03-16T20:55:25.114Z,7.2
2023-03-16T21:00:25.099Z,6.1
2023-03-16T21:05:25.113Z,8.1
2023-03-16T21:10:25.108Z,7.9
2023-03-16T21:15:25.107Z,7.2
2023-03-16T21:20:25.104Z,7
2023-03-16T21:25:25.127Z,6.9
2023-03-16T21:30:25.105Z,6.9
2023-03-16T21:35:25.145Z,7.7
2023-03-16T21:40:25.104Z,7.5
2023-03-16T21:45:25.113Z,7.4
2023-03-16T21:50:25.102Z,7.4
2023-03-16T21:55:25.107Z,6.7
2023-03-16T22:00:25.099Z,6.4
2023-03-16T22:05:25.102Z,6.3
2023-03-16T22:10:25.109Z,0
2023-03-16T22:15:25.109Z,0
2023-03-16T22:20:25.104Z,5.3
2023-03-16T22:25:25.116Z,6.2
2023-03-16T22:30:25.106Z,5.8
2023-03-16T22:35:25.104Z,6.5
2023-03-16T22:40:25.107Z,6.6
2023-03-16T22:45:25.116Z,6.8
2023-03-16T22:50:25.115Z,6.8
2023-03-16T22:55:25.107Z,5.6
2023-03-16T23:00:25.106Z,7.3
2023-03-16T23:05:25.121Z,6.3
2023-03-16T23:10:25.106Z,6.4
2023-03-16T23:15:25.120Z,6
2023-03-16T23:20:25.103Z,7
2023-03-16T23:25:25.116Z,6.6
2023-03-16T23:30:25.119Z,6.6
2023-03-16T23:35:25.105Z,7.2
2023-03-16T23:40:25.112Z,7.2
2023-03-16T23:45:25.114Z,6.8
2023-03-16T23:50:25.110Z,0
2023-03-16T23:55:25.112Z,0
